sensor_id;sensor_type;location;lat;lon;timestamp;P1;durP1;ratioP1;P2;durP2;ratioP2
21647;SDS011;10985;54.182;7.890;2023-04-21T00:01:02;26.27;;;13.95;;
21647;SDS011;10985;54.182;7.890;2023-04-21T00:03:27;27.00;;;12.68;;
21647;SDS011;10985;54.182;7.890;2023-04-21T00:05:57;29.55;;;14.02;;
21647;SDS011;10985;54.182;7.890;2023-04-21T00:08:23;28.33;;;13.85;;
21647;SDS011;10985;54.182;7.890;2023-04-21T00:10:50;35.10;;;14.07;;
21647;SDS011;10985;54.182;7.890;2023-04-21T00:13:15;34.97;;;14.18;;
21647;SDS011;10985;54.182;7.890;2023-04-21T00:15:41;23.25;;;14.02;;
21647;SDS011;10985;54.182;7.890;2023-04-21T00:18:06;32.03;;;13.95;;
21647;SDS011;10985;54.182;7.890;2023-04-21T00:20:33;28.35;;;13.52;;
21647;SDS011;10985;54.182;7.890;2023-04-21T00:22:59;25.35;;;14.98;;
21647;SDS011;10985;54.182;7.890;2023-04-21T00:25:24;35.10;;;14.68;;
21647;SDS011;10985;54.182;7.890;2023-04-21T00:27:50;26.98;;;13.48;;
21647;SDS011;10985;54.182;7.890;2023-04-21T00:30:16;31.45;;;13.25;;
21647;SDS011;10985;54.182;7.890;2023-04-21T00:32:42;32.88;;;12.85;;
21647;SDS011;10985;54.182;7.890;2023-04-21T00:35:07;31.55;;;13.45;;
21647;SDS011;10985;54.182;7.890;2023-04-21T00:37:33;31.65;;;13.15;;
21647;SDS011;10985;54.182;7.890;2023-04-21T00:39:59;27.05;;;13.60;;
21647;SDS011;10985;54.182;7.890;2023-04-21T00:42:25;25.65;;;14.45;;
21647;SDS011;10985;54.182;7.890;2023-04-21T00:44:50;32.90;;;14.10;;
21647;SDS011;10985;54.182;7.890;2023-04-21T00:47:16;36.35;;;14.23;;
21647;SDS011;10985;54.182;7.890;2023-04-21T00:49:42;27.25;;;12.35;;
21647;SDS011;10985;54.182;7.890;2023-04-21T00:52:09;24.63;;;12.98;;
21647;SDS011;10985;54.182;7.890;2023-04-21T00:54:35;25.60;;;12.80;;
21647;SDS011;10985;54.182;7.890;2023-04-21T00:57:01;32.20;;;13.60;;
21647;SDS011;10985;54.182;7.890;2023-04-21T00:59:27;26.40;;;12.75;;
21647;SDS011;10985;54.182;7.890;2023-04-21T01:01:53;28.88;;;13.15;;
21647;SDS011;10985;54.182;7.890;2023-04-21T01:04:19;38.55;;;13.65;;
21647;SDS011;10985;54.182;7.890;2023-04-21T01:06:45;33.10;;;13.32;;
21647;SDS011;10985;54.182;7.890;2023-04-21T01:09:10;27.55;;;13.48;;
21647;SDS011;10985;54.182;7.890;2023-04-21T01:11:36;31.10;;;12.80;;
21647;SDS011;10985;54.182;7.890;2023-04-21T01:14:02;28.23;;;13.48;;
21647;SDS011;10985;54.182;7.890;2023-04-21T01:16:28;27.90;;;12.88;;
21647;SDS011;10985;54.182;7.890;2023-04-21T01:18:56;31.25;;;14.15;;
21647;SDS011;10985;54.182;7.890;2023-04-21T01:21:23;35.70;;;13.75;;
21647;SDS011;10985;54.182;7.890;2023-04-21T01:23:48;32.72;;;14.38;;
21647;SDS011;10985;54.182;7.890;2023-04-21T01:26:16;32.15;;;14.88;;
21647;SDS011;10985;54.182;7.890;2023-04-21T01:28:46;29.65;;;14.80;;
21647;SDS011;10985;54.182;7.890;2023-04-21T01:31:13;36.40;;;14.68;;
21647;SDS011;10985;54.182;7.890;2023-04-21T01:33:39;38.92;;;14.65;;
21647;SDS011;10985;54.182;7.890;2023-04-21T01:36:05;36.35;;;14.80;;
21647;SDS011;10985;54.182;7.890;2023-04-21T01:38:31;34.25;;;15.00;;
21647;SDS011;10985;54.182;7.890;2023-04-21T01:40:56;30.95;;;14.27;;
21647;SDS011;10985;54.182;7.890;2023-04-21T02:00:12;36.42;;;14.35;;
21647;SDS011;10985;54.182;7.890;2023-04-21T02:02:38;33.35;;;14.95;;
21647;SDS011;10985;54.182;7.890;2023-04-21T02:05:04;38.10;;;14.45;;
21647;SDS011;10985;54.182;7.890;2023-04-21T02:07:30;25.60;;;13.23;;
21647;SDS011;10985;54.182;7.890;2023-04-21T02:09:55;33.95;;;14.20;;
21647;SDS011;10985;54.182;7.890;2023-04-21T02:12:20;35.10;;;12.57;;
21647;SDS011;10985;54.182;7.890;2023-04-21T02:14:46;36.35;;;12.70;;
21647;SDS011;10985;54.182;7.890;2023-04-21T02:17:12;26.50;;;13.20;;
21647;SDS011;10985;54.182;7.890;2023-04-21T02:19:38;32.05;;;14.52;;
21647;SDS011;10985;54.182;7.890;2023-04-21T02:22:04;26.42;;;13.27;;
21647;SDS011;10985;54.182;7.890;2023-04-21T02:24:32;38.05;;;13.60;;
21647;SDS011;10985;54.182;7.890;2023-04-21T02:26:58;25.98;;;13.57;;
21647;SDS011;10985;54.182;7.890;2023-04-21T02:29:23;24.63;;;13.60;;
21647;SDS011;10985;54.182;7.890;2023-04-21T02:31:49;27.13;;;13.40;;
21647;SDS011;10985;54.182;7.890;2023-04-21T02:34:14;32.05;;;13.32;;
21647;SDS011;10985;54.182;7.890;2023-04-21T02:36:40;31.98;;;13.30;;
21647;SDS011;10985;54.182;7.890;2023-04-21T02:39:05;31.95;;;12.75;;
21647;SDS011;10985;54.182;7.890;2023-04-21T02:41:31;27.55;;;13.90;;
21647;SDS011;10985;54.182;7.890;2023-04-21T02:43:57;30.95;;;12.50;;
21647;SDS011;10985;54.182;7.890;2023-04-21T02:46:22;31.95;;;13.43;;
21647;SDS011;10985;54.182;7.890;2023-04-21T02:48:47;29.25;;;12.13;;
21647;SDS011;10985;54.182;7.890;2023-04-21T02:51:13;36.45;;;14.55;;
21647;SDS011;10985;54.182;7.890;2023-04-21T02:53:39;28.52;;;12.93;;
21647;SDS011;10985;54.182;7.890;2023-04-21T02:56:06;25.17;;;12.80;;
21647;SDS011;10985;54.182;7.890;2023-04-21T02:58:35;32.83;;;12.73;;
21647;SDS011;10985;54.182;7.890;2023-04-21T03:01:01;34.22;;;12.57;;
21647;SDS011;10985;54.182;7.890;2023-04-21T03:03:28;34.67;;;13.45;;
21647;SDS011;10985;54.182;7.890;2023-04-21T03:05:58;32.13;;;12.82;;
21647;SDS011;10985;54.182;7.890;2023-04-21T03:08:24;33.75;;;12.55;;
21647;SDS011;10985;54.182;7.890;2023-04-21T03:10:50;31.15;;;13.02;;
21647;SDS011;10985;54.182;7.890;2023-04-21T03:13:15;30.92;;;11.50;;
21647;SDS011;10985;54.182;7.890;2023-04-21T03:15:41;36.22;;;13.00;;
21647;SDS011;10985;54.182;7.890;2023-04-21T03:18:07;33.50;;;11.68;;
21647;SDS011;10985;54.182;7.890;2023-04-21T03:20:33;36.67;;;13.63;;
21647;SDS011;10985;54.182;7.890;2023-04-21T03:22:58;32.38;;;12.20;;
21647;SDS011;10985;54.182;7.890;2023-04-21T03:25:24;33.70;;;12.43;;
21647;SDS011;10985;54.182;7.890;2023-04-21T03:27:52;30.73;;;12.18;;
21647;SDS011;10985;54.182;7.890;2023-04-21T03:30:17;26.13;;;11.52;;
21647;SDS011;10985;54.182;7.890;2023-04-21T03:32:43;26.63;;;11.25;;
21647;SDS011;10985;54.182;7.890;2023-04-21T03:35:09;33.17;;;11.55;;
21647;SDS011;10985;54.182;7.890;2023-04-21T03:37:34;27.48;;;11.75;;
21647;SDS011;10985;54.182;7.890;2023-04-21T03:40:00;28.42;;;11.45;;
21647;SDS011;10985;54.182;7.890;2023-04-21T03:42:26;27.50;;;11.65;;
21647;SDS011;10985;54.182;7.890;2023-04-21T03:44:53;29.02;;;11.73;;
21647;SDS011;10985;54.182;7.890;2023-04-21T03:47:19;26.65;;;11.23;;
21647;SDS011;10985;54.182;7.890;2023-04-21T03:49:44;27.92;;;10.63;;
21647;SDS011;10985;54.182;7.890;2023-04-21T03:52:10;28.17;;;12.40;;
21647;SDS011;10985;54.182;7.890;2023-04-21T03:54:36;28.65;;;11.32;;
21647;SDS011;10985;54.182;7.890;2023-04-21T03:57:01;32.08;;;11.75;;
21647;SDS011;10985;54.182;7.890;2023-04-21T03:59:27;21.73;;;10.43;;
21647;SDS011;10985;54.182;7.890;2023-04-21T04:01:52;24.95;;;11.13;;
21647;SDS011;10985;54.182;7.890;2023-04-21T04:04:18;28.77;;;11.35;;
21647;SDS011;10985;54.182;7.890;2023-04-21T04:06:43;26.17;;;11.18;;
21647;SDS011;10985;54.182;7.890;2023-04-21T04:09:09;28.38;;;10.10;;
21647;SDS011;10985;54.182;7.890;2023-04-21T04:11:34;24.10;;;10.10;;
21647;SDS011;10985;54.182;7.890;2023-04-21T04:14:00;32.92;;;11.02;;
21647;SDS011;10985;54.182;7.890;2023-04-21T04:16:25;27.80;;;11.70;;
21647;SDS011;10985;54.182;7.890;2023-04-21T04:18:52;28.67;;;11.77;;
21647;SDS011;10985;54.182;7.890;2023-04-21T04:21:18;27.38;;;10.30;;
21647;SDS011;10985;54.182;7.890;2023-04-21T04:23:44;27.92;;;10.65;;
21647;SDS011;10985;54.182;7.890;2023-04-21T04:26:09;29.17;;;10.63;;
21647;SDS011;10985;54.182;7.890;2023-04-21T04:28:35;31.73;;;11.52;;
21647;SDS011;10985;54.182;7.890;2023-04-21T04:31:01;24.17;;;10.85;;
21647;SDS011;10985;54.182;7.890;2023-04-21T04:33:27;24.80;;;11.85;;
21647;SDS011;10985;54.182;7.890;2023-04-21T04:35:52;30.23;;;11.20;;
21647;SDS011;10985;54.182;7.890;2023-04-21T04:38:18;23.65;;;10.80;;
21647;SDS011;10985;54.182;7.890;2023-04-21T04:40:44;26.10;;;10.68;;
21647;SDS011;10985;54.182;7.890;2023-04-21T04:43:17;27.00;;;10.88;;
21647;SDS011;10985;54.182;7.890;2023-04-21T04:45:42;26.38;;;11.15;;
21647;SDS011;10985;54.182;7.890;2023-04-21T04:48:09;29.83;;;11.30;;
21647;SDS011;10985;54.182;7.890;2023-04-21T04:50:35;24.55;;;10.85;;
21647;SDS011;10985;54.182;7.890;2023-04-21T04:53:00;28.00;;;11.25;;
21647;SDS011;10985;54.182;7.890;2023-04-21T04:55:26;26.88;;;10.50;;
21647;SDS011;10985;54.182;7.890;2023-04-21T04:57:51;33.50;;;11.05;;
21647;SDS011;10985;54.182;7.890;2023-04-21T05:00:17;27.27;;;11.77;;
21647;SDS011;10985;54.182;7.890;2023-04-21T05:02:42;18.42;;;9.63;;
21647;SDS011;10985;54.182;7.890;2023-04-21T05:05:08;22.95;;;10.60;;
21647;SDS011;10985;54.182;7.890;2023-04-21T05:07:33;28.23;;;11.20;;
21647;SDS011;10985;54.182;7.890;2023-04-21T05:09:59;28.98;;;10.93;;
21647;SDS011;10985;54.182;7.890;2023-04-21T05:12:25;25.25;;;10.35;;
21647;SDS011;10985;54.182;7.890;2023-04-21T05:14:50;22.23;;;10.00;;
21647;SDS011;10985;54.182;7.890;2023-04-21T05:17:16;27.67;;;10.10;;
21647;SDS011;10985;54.182;7.890;2023-04-21T05:19:41;23.63;;;10.77;;
21647;SDS011;10985;54.182;7.890;2023-04-21T05:22:07;25.33;;;10.52;;
21647;SDS011;10985;54.182;7.890;2023-04-21T05:24:33;29.80;;;9.93;;
21647;SDS011;10985;54.182;7.890;2023-04-21T05:26:58;31.15;;;10.93;;
21647;SDS011;10985;54.182;7.890;2023-04-21T05:29:25;21.13;;;10.07;;
21647;SDS011;10985;54.182;7.890;2023-04-21T05:31:50;26.05;;;10.43;;
21647;SDS011;10985;54.182;7.890;2023-04-21T05:34:16;23.55;;;10.32;;
21647;SDS011;10985;54.182;7.890;2023-04-21T05:36:41;23.05;;;10.07;;
21647;SDS011;10985;54.182;7.890;2023-04-21T05:39:07;30.30;;;10.13;;
21647;SDS011;10985;54.182;7.890;2023-04-21T05:41:33;21.60;;;9.80;;
21647;SDS011;10985;54.182;7.890;2023-04-21T05:43:58;22.92;;;10.43;;
21647;SDS011;10985;54.182;7.890;2023-04-21T05:46:24;22.52;;;10.23;;
21647;SDS011;10985;54.182;7.890;2023-04-21T05:48:50;23.77;;;11.10;;
21647;SDS011;10985;54.182;7.890;2023-04-21T05:51:15;21.10;;;9.85;;
21647;SDS011;10985;54.182;7.890;2023-04-21T05:53:41;23.40;;;9.88;;
21647;SDS011;10985;54.182;7.890;2023-04-21T05:56:08;32.28;;;11.35;;
21647;SDS011;10985;54.182;7.890;2023-04-21T05:58:35;27.65;;;10.10;;
21647;SDS011;10985;54.182;7.890;2023-04-21T06:01:00;29.27;;;10.63;;
21647;SDS011;10985;54.182;7.890;2023-04-21T06:03:26;27.35;;;10.20;;
21647;SDS011;10985;54.182;7.890;2023-04-21T06:05:54;27.30;;;10.85;;
21647;SDS011;10985;54.182;7.890;2023-04-21T06:08:23;22.83;;;9.45;;
21647;SDS011;10985;54.182;7.890;2023-04-21T06:10:49;22.08;;;10.35;;
21647;SDS011;10985;54.182;7.890;2023-04-21T06:13:14;27.35;;;10.50;;
21647;SDS011;10985;54.182;7.890;2023-04-21T06:15:40;24.85;;;10.45;;
21647;SDS011;10985;54.182;7.890;2023-04-21T06:18:05;23.27;;;10.02;;
21647;SDS011;10985;54.182;7.890;2023-04-21T06:20:31;27.60;;;10.85;;
21647;SDS011;10985;54.182;7.890;2023-04-21T06:22:56;21.50;;;9.85;;
21647;SDS011;10985;54.182;7.890;2023-04-21T06:25:22;22.90;;;9.73;;
21647;SDS011;10985;54.182;7.890;2023-04-21T06:27:47;24.77;;;9.93;;
21647;SDS011;10985;54.182;7.890;2023-04-21T06:30:13;26.90;;;9.73;;
21647;SDS011;10985;54.182;7.890;2023-04-21T06:32:39;22.20;;;9.18;;
21647;SDS011;10985;54.182;7.890;2023-04-21T06:35:04;23.30;;;9.65;;
21647;SDS011;10985;54.182;7.890;2023-04-21T06:37:30;21.15;;;10.40;;
21647;SDS011;10985;54.182;7.890;2023-04-21T06:39:56;26.33;;;9.65;;
21647;SDS011;10985;54.182;7.890;2023-04-21T06:42:21;25.92;;;10.23;;
21647;SDS011;10985;54.182;7.890;2023-04-21T06:44:47;22.80;;;10.23;;
21647;SDS011;10985;54.182;7.890;2023-04-21T06:47:13;27.10;;;10.40;;
21647;SDS011;10985;54.182;7.890;2023-04-21T06:49:40;25.92;;;10.15;;
21647;SDS011;10985;54.182;7.890;2023-04-21T06:52:06;17.80;;;9.75;;
21647;SDS011;10985;54.182;7.890;2023-04-21T06:54:31;24.85;;;10.18;;
21647;SDS011;10985;54.182;7.890;2023-04-21T06:56:57;26.70;;;9.88;;
21647;SDS011;10985;54.182;7.890;2023-04-21T06:59:22;28.25;;;10.70;;
21647;SDS011;10985;54.182;7.890;2023-04-21T07:01:48;24.60;;;10.20;;
21647;SDS011;10985;54.182;7.890;2023-04-21T07:04:16;19.27;;;9.32;;
21647;SDS011;10985;54.182;7.890;2023-04-21T07:06:42;24.95;;;11.07;;
21647;SDS011;10985;54.182;7.890;2023-04-21T07:09:08;18.38;;;10.30;;
21647;SDS011;10985;54.182;7.890;2023-04-21T07:11:34;25.00;;;9.82;;
21647;SDS011;10985;54.182;7.890;2023-04-21T07:13:59;21.77;;;10.93;;
21647;SDS011;10985;54.182;7.890;2023-04-21T07:16:26;21.40;;;9.63;;
21647;SDS011;10985;54.182;7.890;2023-04-21T07:18:52;22.13;;;10.13;;
21647;SDS011;10985;54.182;7.890;2023-04-21T07:21:18;21.45;;;9.38;;
21647;SDS011;10985;54.182;7.890;2023-04-21T07:23:43;26.15;;;9.90;;
21647;SDS011;10985;54.182;7.890;2023-04-21T07:26:09;23.95;;;10.93;;
21647;SDS011;10985;54.182;7.890;2023-04-21T07:28:34;23.17;;;9.63;;
21647;SDS011;10985;54.182;7.890;2023-04-21T07:31:01;24.00;;;9.35;;
21647;SDS011;10985;54.182;7.890;2023-04-21T07:33:26;30.25;;;9.60;;
21647;SDS011;10985;54.182;7.890;2023-04-21T07:35:52;28.23;;;10.02;;
21647;SDS011;10985;54.182;7.890;2023-04-21T07:38:18;21.73;;;9.02;;
21647;SDS011;10985;54.182;7.890;2023-04-21T07:40:43;17.40;;;9.82;;
21647;SDS011;10985;54.182;7.890;2023-04-21T07:43:09;18.35;;;9.60;;
21647;SDS011;10985;54.182;7.890;2023-04-21T07:45:34;20.83;;;9.25;;
21647;SDS011;10985;54.182;7.890;2023-04-21T07:48:01;19.02;;;8.98;;
21647;SDS011;10985;54.182;7.890;2023-04-21T07:50:26;17.77;;;9.45;;
21647;SDS011;10985;54.182;7.890;2023-04-21T07:52:52;20.92;;;9.63;;
21647;SDS011;10985;54.182;7.890;2023-04-21T07:55:17;20.77;;;9.52;;
21647;SDS011;10985;54.182;7.890;2023-04-21T07:57:43;15.73;;;8.32;;
21647;SDS011;10985;54.182;7.890;2023-04-21T08:00:08;17.58;;;9.48;;
21647;SDS011;10985;54.182;7.890;2023-04-21T08:02:35;23.38;;;9.68;;
21647;SDS011;10985;54.182;7.890;2023-04-21T08:05:00;22.50;;;9.25;;
21647;SDS011;10985;54.182;7.890;2023-04-21T08:07:26;19.35;;;9.40;;
21647;SDS011;10985;54.182;7.890;2023-04-21T08:09:51;18.40;;;9.27;;
21647;SDS011;10985;54.182;7.890;2023-04-21T08:12:17;14.35;;;8.90;;
21647;SDS011;10985;54.182;7.890;2023-04-21T08:14:42;17.25;;;8.75;;
21647;SDS011;10985;54.182;7.890;2023-04-21T08:17:08;16.90;;;8.43;;
21647;SDS011;10985;54.182;7.890;2023-04-21T08:19:33;21.90;;;8.80;;
21647;SDS011;10985;54.182;7.890;2023-04-21T08:21:59;17.27;;;7.93;;
21647;SDS011;10985;54.182;7.890;2023-04-21T08:24:24;16.63;;;8.30;;
21647;SDS011;10985;54.182;7.890;2023-04-21T08:26:50;19.33;;;8.95;;
21647;SDS011;10985;54.182;7.890;2023-04-21T08:29:15;18.60;;;9.15;;
21647;SDS011;10985;54.182;7.890;2023-04-21T08:31:41;17.85;;;8.20;;
21647;SDS011;10985;54.182;7.890;2023-04-21T08:34:06;17.67;;;8.52;;
21647;SDS011;10985;54.182;7.890;2023-04-21T08:36:32;16.55;;;8.43;;
21647;SDS011;10985;54.182;7.890;2023-04-21T08:38:58;17.25;;;8.80;;
21647;SDS011;10985;54.182;7.890;2023-04-21T08:41:24;22.77;;;8.48;;
21647;SDS011;10985;54.182;7.890;2023-04-21T08:43:50;16.80;;;8.88;;
21647;SDS011;10985;54.182;7.890;2023-04-21T08:46:16;17.95;;;9.00;;
21647;SDS011;10985;54.182;7.890;2023-04-21T08:48:43;18.80;;;8.90;;
21647;SDS011;10985;54.182;7.890;2023-04-21T08:51:10;18.77;;;8.70;;
21647;SDS011;10985;54.182;7.890;2023-04-21T08:53:38;17.50;;;8.50;;
21647;SDS011;10985;54.182;7.890;2023-04-21T08:56:05;15.85;;;8.60;;
21647;SDS011;10985;54.182;7.890;2023-04-21T08:58:31;14.88;;;8.20;;
21647;SDS011;10985;54.182;7.890;2023-04-21T09:00:56;15.75;;;8.07;;
21647;SDS011;10985;54.182;7.890;2023-04-21T09:03:26;21.15;;;8.15;;
21647;SDS011;10985;54.182;7.890;2023-04-21T09:06:02;23.02;;;9.05;;
21647;SDS011;10985;54.182;7.890;2023-04-21T09:08:29;20.05;;;8.82;;
21647;SDS011;10985;54.182;7.890;2023-04-21T09:10:56;15.50;;;8.93;;
21647;SDS011;10985;54.182;7.890;2023-04-21T09:13:30;15.10;;;7.97;;
21647;SDS011;10985;54.182;7.890;2023-04-21T09:15:57;16.02;;;8.48;;
21647;SDS011;10985;54.182;7.890;2023-04-21T09:18:27;13.77;;;8.13;;
21647;SDS011;10985;54.182;7.890;2023-04-21T09:21:07;17.58;;;8.55;;
21647;SDS011;10985;54.182;7.890;2023-04-21T09:23:40;14.38;;;8.25;;
21647;SDS011;10985;54.182;7.890;2023-04-21T09:26:07;15.70;;;8.13;;
21647;SDS011;10985;54.182;7.890;2023-04-21T09:28:33;17.73;;;8.93;;
21647;SDS011;10985;54.182;7.890;2023-04-21T09:30:58;26.73;;;9.45;;
21647;SDS011;10985;54.182;7.890;2023-04-21T09:33:24;23.85;;;9.60;;
21647;SDS011;10985;54.182;7.890;2023-04-21T09:35:50;22.73;;;9.18;;
21647;SDS011;10985;54.182;7.890;2023-04-21T09:38:16;24.98;;;8.85;;
21647;SDS011;10985;54.182;7.890;2023-04-21T09:40:46;24.45;;;9.40;;
21647;SDS011;10985;54.182;7.890;2023-04-21T09:43:21;23.38;;;9.45;;
21647;SDS011;10985;54.182;7.890;2023-04-21T09:45:46;18.38;;;9.10;;
21647;SDS011;10985;54.182;7.890;2023-04-21T09:48:13;18.67;;;8.55;;
21647;SDS011;10985;54.182;7.890;2023-04-21T09:50:42;18.35;;;8.27;;
21647;SDS011;10985;54.182;7.890;2023-04-21T09:53:07;18.70;;;8.15;;
21647;SDS011;10985;54.182;7.890;2023-04-21T09:55:38;19.17;;;8.40;;
21647;SDS011;10985;54.182;7.890;2023-04-21T09:58:06;16.83;;;7.82;;
21647;SDS011;10985;54.182;7.890;2023-04-21T10:00:33;23.10;;;8.85;;
21647;SDS011;10985;54.182;7.890;2023-04-21T10:03:03;24.52;;;9.45;;
21647;SDS011;10985;54.182;7.890;2023-04-21T10:05:34;20.52;;;8.98;;
21647;SDS011;10985;54.182;7.890;2023-04-21T10:08:00;27.08;;;9.63;;
21647;SDS011;10985;54.182;7.890;2023-04-21T10:10:27;24.02;;;9.02;;
21647;SDS011;10985;54.182;7.890;2023-04-21T10:12:57;16.52;;;7.72;;
21647;SDS011;10985;54.182;7.890;2023-04-21T10:15:33;20.60;;;8.85;;
21647;SDS011;10985;54.182;7.890;2023-04-21T10:18:12;15.93;;;8.70;;
21647;SDS011;10985;54.182;7.890;2023-04-21T10:20:49;15.95;;;8.80;;
21647;SDS011;10985;54.182;7.890;2023-04-21T10:25:51;12.93;;;8.30;;
21647;SDS011;10985;54.182;7.890;2023-04-21T10:28:18;17.45;;;8.23;;
21647;SDS011;10985;54.182;7.890;2023-04-21T10:30:43;20.15;;;8.80;;
21647;SDS011;10985;54.182;7.890;2023-04-21T10:33:09;23.20;;;8.95;;
21647;SDS011;10985;54.182;7.890;2023-04-21T10:38:32;24.60;;;9.43;;
21647;SDS011;10985;54.182;7.890;2023-04-21T10:41:47;17.27;;;8.50;;
21647;SDS011;10985;54.182;7.890;2023-04-21T10:43:57;19.63;;;9.27;;
21647;SDS011;10985;54.182;7.890;2023-04-21T10:46:45;21.25;;;9.00;;
21647;SDS011;10985;54.182;7.890;2023-04-21T10:49:27;21.20;;;8.98;;
21647;SDS011;10985;54.182;7.890;2023-04-21T10:57:10;26.13;;;9.38;;
21647;SDS011;10985;54.182;7.890;2023-04-21T10:59:37;22.98;;;10.25;;
21647;SDS011;10985;54.182;7.890;2023-04-21T11:02:16;20.95;;;9.70;;
21647;SDS011;10985;54.182;7.890;2023-04-21T11:04:43;25.92;;;10.30;;
21647;SDS011;10985;54.182;7.890;2023-04-21T11:07:15;19.27;;;9.73;;
21647;SDS011;10985;54.182;7.890;2023-04-21T11:09:42;22.73;;;9.98;;
21647;SDS011;10985;54.182;7.890;2023-04-21T11:12:09;25.58;;;10.52;;
21647;SDS011;10985;54.182;7.890;2023-04-21T11:14:37;23.25;;;9.85;;
21647;SDS011;10985;54.182;7.890;2023-04-21T11:17:04;19.88;;;9.13;;
21647;SDS011;10985;54.182;7.890;2023-04-21T11:19:35;24.52;;;9.65;;
21647;SDS011;10985;54.182;7.890;2023-04-21T11:22:02;16.77;;;9.73;;
21647;SDS011;10985;54.182;7.890;2023-04-21T11:24:28;25.60;;;10.32;;
21647;SDS011;10985;54.182;7.890;2023-04-21T11:26:55;26.65;;;10.02;;
21647;SDS011;10985;54.182;7.890;2023-04-21T11:29:20;22.17;;;10.60;;
21647;SDS011;10985;54.182;7.890;2023-04-21T11:31:46;22.98;;;10.25;;
21647;SDS011;10985;54.182;7.890;2023-04-21T11:34:14;19.30;;;9.82;;
21647;SDS011;10985;54.182;7.890;2023-04-21T11:36:44;23.50;;;9.45;;
21647;SDS011;10985;54.182;7.890;2023-04-21T11:39:11;20.80;;;9.93;;
21647;SDS011;10985;54.182;7.890;2023-04-21T11:41:41;23.35;;;10.60;;
21647;SDS011;10985;54.182;7.890;2023-04-21T11:44:08;24.90;;;10.35;;
21647;SDS011;10985;54.182;7.890;2023-04-21T11:46:44;22.52;;;10.77;;
21647;SDS011;10985;54.182;7.890;2023-04-21T11:49:13;26.00;;;11.07;;
21647;SDS011;10985;54.182;7.890;2023-04-21T11:51:43;18.60;;;9.52;;
21647;SDS011;10985;54.182;7.890;2023-04-21T11:54:09;22.00;;;9.85;;
21647;SDS011;10985;54.182;7.890;2023-04-21T11:56:37;26.42;;;10.10;;
21647;SDS011;10985;54.182;7.890;2023-04-21T11:59:11;24.35;;;9.98;;
21647;SDS011;10985;54.182;7.890;2023-04-21T12:01:50;16.30;;;9.27;;
21647;SDS011;10985;54.182;7.890;2023-04-21T12:04:21;17.63;;;9.45;;
21647;SDS011;10985;54.182;7.890;2023-04-21T12:07:00;17.25;;;9.40;;
21647;SDS011;10985;54.182;7.890;2023-04-21T12:09:26;18.10;;;9.32;;
21647;SDS011;10985;54.182;7.890;2023-04-21T12:11:53;16.60;;;10.07;;
21647;SDS011;10985;54.182;7.890;2023-04-21T12:14:21;18.15;;;9.00;;
21647;SDS011;10985;54.182;7.890;2023-04-21T12:16:48;15.45;;;9.63;;
21647;SDS011;10985;54.182;7.890;2023-04-21T12:19:22;16.40;;;9.60;;
21647;SDS011;10985;54.182;7.890;2023-04-21T12:21:53;21.95;;;10.30;;
21647;SDS011;10985;54.182;7.890;2023-04-21T12:24:20;21.75;;;9.45;;
21647;SDS011;10985;54.182;7.890;2023-04-21T12:26:46;26.27;;;9.50;;
21647;SDS011;10985;54.182;7.890;2023-04-21T12:29:11;24.40;;;10.07;;
21647;SDS011;10985;54.182;7.890;2023-04-21T12:31:37;20.65;;;9.88;;
21647;SDS011;10985;54.182;7.890;2023-04-21T12:34:02;17.92;;;10.38;;
21647;SDS011;10985;54.182;7.890;2023-04-21T12:36:28;17.55;;;10.20;;
21647;SDS011;10985;54.182;7.890;2023-04-21T12:38:54;16.85;;;9.93;;
21647;SDS011;10985;54.182;7.890;2023-04-21T12:41:20;18.10;;;9.20;;
21647;SDS011;10985;54.182;7.890;2023-04-21T12:43:45;16.70;;;9.52;;
21647;SDS011;10985;54.182;7.890;2023-04-21T12:46:11;23.17;;;10.18;;
21647;SDS011;10985;54.182;7.890;2023-04-21T12:48:36;15.70;;;8.88;;
21647;SDS011;10985;54.182;7.890;2023-04-21T12:51:02;18.85;;;9.93;;
21647;SDS011;10985;54.182;7.890;2023-04-21T12:53:28;16.75;;;9.38;;
21647;SDS011;10985;54.182;7.890;2023-04-21T12:55:53;16.23;;;8.95;;
21647;SDS011;10985;54.182;7.890;2023-04-21T12:58:19;17.13;;;9.00;;
21647;SDS011;10985;54.182;7.890;2023-04-21T13:00:44;18.80;;;10.27;;
21647;SDS011;10985;54.182;7.890;2023-04-21T13:03:10;18.73;;;9.98;;
21647;SDS011;10985;54.182;7.890;2023-04-21T13:05:35;21.73;;;9.88;;
21647;SDS011;10985;54.182;7.890;2023-04-21T13:08:01;18.00;;;9.55;;
21647;SDS011;10985;54.182;7.890;2023-04-21T13:10:27;17.20;;;9.80;;
21647;SDS011;10985;54.182;7.890;2023-04-21T13:12:53;15.05;;;9.57;;
21647;SDS011;10985;54.182;7.890;2023-04-21T13:15:18;15.90;;;9.02;;
21647;SDS011;10985;54.182;7.890;2023-04-21T13:17:44;20.00;;;9.80;;
21647;SDS011;10985;54.182;7.890;2023-04-21T13:20:09;16.65;;;9.73;;
21647;SDS011;10985;54.182;7.890;2023-04-21T13:22:36;16.42;;;9.68;;
21647;SDS011;10985;54.182;7.890;2023-04-21T13:25:01;20.20;;;10.30;;
21647;SDS011;10985;54.182;7.890;2023-04-21T13:27:28;20.52;;;10.23;;
21647;SDS011;10985;54.182;7.890;2023-04-21T13:29:54;21.13;;;9.65;;
21647;SDS011;10985;54.182;7.890;2023-04-21T13:32:20;17.17;;;9.88;;
21647;SDS011;10985;54.182;7.890;2023-04-21T13:34:46;20.45;;;10.63;;
21647;SDS011;10985;54.182;7.890;2023-04-21T13:37:11;30.50;;;10.23;;
21647;SDS011;10985;54.182;7.890;2023-04-21T13:39:40;27.95;;;10.65;;
21647;SDS011;10985;54.182;7.890;2023-04-21T13:42:05;31.00;;;10.43;;
21647;SDS011;10985;54.182;7.890;2023-04-21T13:44:31;32.75;;;10.25;;
21647;SDS011;10985;54.182;7.890;2023-04-21T13:46:57;27.45;;;11.07;;
21647;SDS011;10985;54.182;7.890;2023-04-21T13:49:23;27.98;;;11.18;;
21647;SDS011;10985;54.182;7.890;2023-04-21T13:51:49;29.42;;;10.90;;
21647;SDS011;10985;54.182;7.890;2023-04-21T13:54:14;28.85;;;11.70;;
21647;SDS011;10985;54.182;7.890;2023-04-21T13:56:40;31.60;;;11.73;;
21647;SDS011;10985;54.182;7.890;2023-04-21T13:59:05;45.92;;;12.45;;
21647;SDS011;10985;54.182;7.890;2023-04-21T14:01:31;52.35;;;12.95;;
21647;SDS011;10985;54.182;7.890;2023-04-21T14:03:57;40.72;;;12.65;;
21647;SDS011;10985;54.182;7.890;2023-04-21T14:06:22;58.88;;;13.80;;
21647;SDS011;10985;54.182;7.890;2023-04-21T14:08:48;46.42;;;12.90;;
21647;SDS011;10985;54.182;7.890;2023-04-21T14:11:14;55.55;;;12.90;;
21647;SDS011;10985;54.182;7.890;2023-04-21T14:13:39;56.33;;;14.07;;
21647;SDS011;10985;54.182;7.890;2023-04-21T14:16:05;53.53;;;12.85;;
21647;SDS011;10985;54.182;7.890;2023-04-21T14:18:31;69.32;;;13.88;;
21647;SDS011;10985;54.182;7.890;2023-04-21T14:20:57;63.28;;;14.25;;
21647;SDS011;10985;54.182;7.890;2023-04-21T14:23:23;82.60;;;15.30;;
21647;SDS011;10985;54.182;7.890;2023-04-21T14:25:48;71.43;;;14.25;;
21647;SDS011;10985;54.182;7.890;2023-04-21T14:28:14;56.58;;;14.63;;
21647;SDS011;10985;54.182;7.890;2023-04-21T14:30:39;71.47;;;14.00;;
21647;SDS011;10985;54.182;7.890;2023-04-21T14:33:07;73.38;;;14.95;;
21647;SDS011;10985;54.182;7.890;2023-04-21T14:35:34;62.53;;;14.02;;
21647;SDS011;10985;54.182;7.890;2023-04-21T14:38:02;71.70;;;15.10;;
21647;SDS011;10985;54.182;7.890;2023-04-21T14:40:28;72.22;;;14.43;;
21647;SDS011;10985;54.182;7.890;2023-04-21T14:42:54;60.40;;;14.25;;
21647;SDS011;10985;54.182;7.890;2023-04-21T14:45:19;54.20;;;12.55;;
21647;SDS011;10985;54.182;7.890;2023-04-21T14:47:45;39.92;;;12.52;;
21647;SDS011;10985;54.182;7.890;2023-04-21T14:50:11;37.20;;;12.13;;